Time;durP1;ratioP1;P1;durP2;ratioP2;P2;SDS_P1;SDS_P2;PMS_P1;PMS_P2;Temp;Humidity;BMP_temperature;BMP_pressure;BME280_temperature;BME280_humidity;BME280_pressure;Samples;Min_cycle;Max_cycle;Signal;HPM_P1;HPM_P2
2021/04/23 00:02:01;;;;;;;21.30;5.13;;;4.20;99.90;;;;;;5071183;28;20201;-76
2021/04/23 00:04:47;;;;;;;20.93;6.20;;;4.20;99.90;;;;;;5068405;28;20715;-79
2021/04/23 00:07:31;;;;;;;15.97;5.30;;;4.20;99.90;;;;;;5075321;28;20211;-79
2021/04/23 00:10:19;;;;;;;14.63;5.00;;;4.10;99.90;;;;;;5076026;28;20222;-79
2021/04/23 00:13:05;;;;;;;16.73;5.23;;;4.00;99.90;;;;;;5067606;28;20218;-79
2021/04/23 00:15:51;;;;;;;13.40;4.77;;;4.00;99.90;;;;;;5071840;28;20226;-79
2021/04/23 00:18:36;;;;;;;14.83;5.97;;;3.90;99.90;;;;;;5073546;28;20258;-78
2021/04/23 00:21:23;;;;;;;15.47;5.00;;;3.80;99.90;;;;;;5068543;28;20701;-78
2021/04/23 00:24:09;;;;;;;15.83;5.53;;;3.80;99.90;;;;;;5067784;28;20215;-77
2021/04/23 00:26:54;;;;;;;13.23;5.27;;;3.70;99.90;;;;;;5069174;28;20258;-76
2021/04/23 00:29:39;;;;;;;15.77;5.53;;;3.60;99.90;;;;;;5065865;28;20275;-79
2021/04/23 00:32:24;;;;;;;13.93;4.97;;;3.60;99.90;;;;;;5073014;28;20259;-76
2021/04/23 00:35:09;;;;;;;13.80;4.87;;;3.50;99.90;;;;;;5071361;28;20211;-79
2021/04/23 00:37:57;;;;;;;14.50;5.10;;;3.50;99.90;;;;;;5074537;28;20221;-76
2021/04/23 00:40:48;;;;;;;17.63;5.73;;;3.50;99.90;;;;;;5075288;28;20248;-79
2021/04/23 00:43:37;;;;;;;17.97;5.60;;;3.40;99.90;;;;;;5063839;28;20197;-77
2021/04/23 00:46:24;;;;;;;16.37;5.70;;;3.30;99.90;;;;;;5073822;28;20233;-78
2021/04/23 00:49:09;;;;;;;14.07;5.90;;;3.30;99.90;;;;;;5075560;28;20268;-79
2021/04/23 00:51:57;;;;;;;18.20;5.70;;;3.20;99.90;;;;;;5075806;28;20233;-79
2021/04/23 00:54:42;;;;;;;16.33;5.67;;;3.20;99.90;;;;;;5071869;28;20209;-79
2021/04/23 00:57:27;;;;;;;17.43;5.43;;;3.10;99.90;;;;;;5070419;28;20621;-78
2021/04/23 01:00:13;;;;;;;14.77;5.30;;;3.10;99.90;;;;;;5077442;28;20228;-79
2021/04/23 01:02:58;;;;;;;14.40;5.73;;;3.10;99.90;;;;;;5071114;28;20719;-78
2021/04/23 01:05:42;;;;;;;16.17;5.67;;;3.00;99.90;;;;;;5071451;28;20230;-77
2021/04/23 01:08:28;;;;;;;13.30;5.63;;;3.00;99.90;;;;;;5074784;28;20195;-78
2021/04/23 01:11:15;;;;;;;12.47;5.20;;;3.00;99.90;;;;;;5070001;28;20225;-77
2021/04/23 01:13:59;;;;;;;15.40;7.13;;;2.90;99.90;;;;;;5072076;28;20210;-77
2021/04/23 01:16:45;;;;;;;17.23;5.90;;;2.90;99.90;;;;;;5075912;28;20256;-76
2021/04/23 01:19:30;;;;;;;14.87;5.20;;;2.80;99.90;;;;;;5073625;28;20735;-77
2021/04/23 01:22:15;;;;;;;12.93;5.87;;;2.80;99.90;;;;;;5077493;28;20611;-79
2021/04/23 01:25:01;;;;;;;14.23;5.30;;;2.70;99.90;;;;;;5077604;28;20213;-78
2021/04/23 01:27:46;;;;;;;15.70;4.83;;;2.70;99.90;;;;;;5075170;28;20205;-79
2021/04/23 01:30:31;;;;;;;10.60;5.17;;;2.70;99.90;;;;;;5077984;28;20222;-76
2021/04/23 01:33:16;;;;;;;15.97;5.73;;;2.60;99.90;;;;;;5077486;28;20206;-79
2021/04/23 01:36:01;;;;;;;9.83;5.07;;;2.60;99.90;;;;;;5071567;28;20217;-77
2021/04/23 01:38:48;;;;;;;11.13;4.67;;;2.60;99.90;;;;;;5075363;28;20279;-78
2021/04/23 01:41:34;;;;;;;13.23;4.93;;;2.50;99.90;;;;;;5072723;28;20292;-77
2021/04/23 01:44:20;;;;;;;11.80;5.20;;;2.50;99.90;;;;;;5057770;28;20215;-78
2021/04/23 01:47:08;;;;;;;11.47;5.03;;;2.50;99.90;;;;;;5064344;28;20741;-76
2021/04/23 01:49:53;;;;;;;16.10;5.07;;;2.40;99.90;;;;;;5067424;28;20234;-78
2021/04/23 01:52:38;;;;;;;11.90;5.27;;;2.40;99.90;;;;;;5070968;28;20205;-78
2021/04/23 01:55:24;;;;;;;13.63;5.17;;;2.40;99.90;;;;;;5068519;28;20317;-78
2021/04/23 01:58:10;;;;;;;20.33;5.27;;;2.30;99.90;;;;;;5059119;28;20701;-76
2021/04/23 02:00:55;;;;;;;17.43;5.93;;;2.30;99.90;;;;;;5073616;28;20242;-77
2021/04/23 02:03:40;;;;;;;16.30;5.60;;;2.30;99.90;;;;;;5053625;28;20257;-77
2021/04/23 02:06:28;;;;;;;14.60;5.03;;;2.30;99.90;;;;;;5066224;28;20314;-77
2021/04/23 02:09:13;;;;;;;12.60;5.33;;;2.20;99.90;;;;;;5063371;28;20237;-77
2021/04/23 02:11:59;;;;;;;13.67;5.20;;;2.20;99.90;;;;;;5053681;28;20289;-78
2021/04/23 02:14:46;;;;;;;13.50;5.17;;;2.20;99.90;;;;;;5066904;28;20213;-77
2021/04/23 02:17:31;;;;;;;18.77;5.63;;;2.20;99.90;;;;;;5060578;28;20286;-77
2021/04/23 02:20:20;;;;;;;10.93;5.03;;;2.10;99.90;;;;;;5069570;28;20226;-78
2021/04/23 02:23:09;;;;;;;12.63;4.83;;;2.10;99.90;;;;;;5053913;28;20206;-77
2021/04/23 02:25:55;;;;;;;12.40;4.90;;;2.10;99.90;;;;;;5060402;28;20785;-76
2021/04/23 02:28:40;;;;;;;15.37;4.57;;;2.10;99.90;;;;;;5059493;28;20226;-77
2021/04/23 02:31:29;;;;;;;13.87;6.13;;;2.00;99.90;;;;;;5064108;28;20294;-77
2021/04/23 02:34:16;;;;;;;10.97;4.43;;;2.00;99.90;;;;;;5063050;28;20569;-77
2021/04/23 02:37:00;;;;;;;14.63;5.27;;;2.00;99.90;;;;;;5064884;28;20261;-77
2021/04/23 02:39:46;;;;;;;17.80;5.70;;;1.90;99.90;;;;;;5072058;28;20226;-81
2021/04/23 02:42:31;;;;;;;14.83;5.30;;;1.90;99.90;;;;;;5070470;28;20252;-78
2021/04/23 02:45:20;;;;;;;13.37;5.30;;;1.90;99.90;;;;;;5066867;28;20434;-76
2021/04/23 02:48:06;;;;;;;14.23;5.27;;;1.90;99.90;;;;;;5067553;28;20241;-76
2021/04/23 02:50:54;;;;;;;14.80;6.03;;;1.80;99.90;;;;;;5058626;28;20206;-76
2021/04/23 02:53:40;;;;;;;12.73;4.97;;;1.80;99.90;;;;;;5069028;28;20234;-77
2021/04/23 02:56:25;;;;;;;17.97;5.50;;;1.80;99.90;;;;;;5054538;28;20207;-76
2021/04/23 02:59:11;;;;;;;16.07;5.67;;;1.80;99.90;;;;;;5065991;28;20229;-77
2021/04/23 03:01:57;;;;;;;17.53;6.57;;;1.90;99.90;;;;;;5063204;28;20285;-76
2021/04/23 03:04:42;;;;;;;14.93;5.53;;;1.80;99.90;;;;;;5056154;28;20225;-77
2021/04/23 03:07:28;;;;;;;13.83;6.17;;;1.80;99.90;;;;;;5072340;28;20210;-77
2021/04/23 03:10:14;;;;;;;14.70;5.30;;;1.80;99.90;;;;;;5071858;28;20826;-76
2021/04/23 03:13:04;;;;;;;16.90;5.37;;;1.80;99.90;;;;;;5055477;28;20334;-77
2021/04/23 03:15:50;;;;;;;20.73;6.17;;;1.80;99.90;;;;;;5063092;28;20199;-77
2021/04/23 03:18:37;;;;;;;13.93;5.97;;;1.80;99.90;;;;;;5070534;28;20210;-77
2021/04/23 03:21:25;;;;;;;16.57;5.93;;;1.80;99.90;;;;;;5070484;28;20206;-78
2021/04/23 03:24:12;;;;;;;14.90;6.20;;;1.70;99.90;;;;;;5052014;28;20211;-77
2021/04/23 03:26:57;;;;;;;15.57;5.33;;;1.70;99.90;;;;;;5062325;28;20257;-76
2021/04/23 03:29:43;;;;;;;18.33;5.80;;;1.70;99.90;;;;;;5071817;28;20802;-77
2021/04/23 03:32:30;;;;;;;16.73;5.70;;;1.70;99.90;;;;;;5071328;28;20681;-76
2021/04/23 03:35:17;;;;;;;11.27;5.30;;;1.70;99.90;;;;;;5067703;28;20203;-77
2021/04/23 03:38:03;;;;;;;13.90;5.67;;;1.70;99.90;;;;;;5071239;28;20566;-77
2021/04/23 03:40:50;;;;;;;12.63;4.63;;;1.70;99.90;;;;;;5071928;28;20198;-78
2021/04/23 03:43:34;;;;;;;17.57;5.60;;;1.70;99.90;;;;;;5062165;28;20574;-78
2021/04/23 03:46:20;;;;;;;16.97;5.57;;;1.60;99.90;;;;;;5070875;28;20608;-78
2021/04/23 03:49:05;;;;;;;16.27;5.80;;;1.60;99.90;;;;;;5069506;28;20230;-78
2021/04/23 03:51:51;;;;;;;15.20;5.57;;;1.60;99.90;;;;;;5061532;28;20576;-77
2021/04/23 03:54:37;;;;;;;16.33;5.50;;;1.60;99.90;;;;;;5065822;28;20208;-77
2021/04/23 03:57:22;;;;;;;16.13;6.77;;;1.60;99.90;;;;;;5051627;28;20215;-77
2021/04/23 04:00:11;;;;;;;13.43;5.97;;;1.60;99.90;;;;;;5059497;28;20228;-78
2021/04/23 04:02:57;;;;;;;14.57;6.30;;;1.60;99.90;;;;;;5071245;28;20191;-80
2021/04/23 04:05:43;;;;;;;17.03;5.87;;;1.50;99.90;;;;;;5051146;28;20754;-77
2021/04/23 04:08:29;;;;;;;17.83;6.27;;;1.50;99.90;;;;;;5057572;28;20301;-77
2021/04/23 04:11:14;;;;;;;14.83;5.70;;;1.50;99.90;;;;;;5069197;28;20202;-77
2021/04/23 04:13:58;;;;;;;15.53;5.37;;;1.50;99.90;;;;;;5060236;28;20488;-77
2021/04/23 04:16:44;;;;;;;16.87;5.77;;;1.50;99.90;;;;;;5064331;28;20265;-77
2021/04/23 04:19:29;;;;;;;15.97;5.70;;;1.50;99.90;;;;;;5050806;28;20628;-76
2021/04/23 04:22:13;;;;;;;15.87;5.63;;;1.40;99.90;;;;;;5057439;28;20260;-77
2021/04/23 04:24:59;;;;;;;19.57;5.83;;;1.40;99.90;;;;;;5063911;28;20229;-77
2021/04/23 04:27:43;;;;;;;13.97;5.53;;;1.40;99.90;;;;;;5061752;28;20622;-77
2021/04/23 04:30:29;;;;;;;17.03;5.67;;;1.40;99.90;;;;;;5070541;28;20222;-75
2021/04/23 04:33:14;;;;;;;20.43;6.13;;;1.30;99.90;;;;;;5054355;28;20213;-76
2021/04/23 04:36:00;;;;;;;17.70;6.57;;;1.30;99.90;;;;;;5071324;28;20230;-77
2021/04/23 04:38:45;;;;;;;17.27;5.87;;;1.30;99.90;;;;;;5069691;28;20719;-75
2021/04/23 04:41:31;;;;;;;13.30;5.87;;;1.30;99.90;;;;;;5059186;28;20221;-75
2021/04/23 04:44:16;;;;;;;11.67;5.33;;;1.20;99.90;;;;;;5069034;28;20241;-76
2021/04/23 04:47:01;;;;;;;18.40;6.97;;;1.20;99.90;;;;;;5068968;28;20213;-76
2021/04/23 04:49:46;;;;;;;19.03;8.73;;;1.20;99.90;;;;;;5060962;28;20280;-76
2021/04/23 04:52:31;;;;;;;26.27;11.77;;;1.20;99.90;;;;;;5068194;28;20214;-75
2021/04/23 04:55:16;;;;;;;20.90;8.80;;;1.20;99.90;;;;;;5062133;28;20592;-75
2021/04/23 04:58:03;;;;;;;24.83;9.33;;;1.20;99.90;;;;;;5067866;28;20795;-76
2021/04/23 05:00:49;;;;;;;24.67;9.93;;;1.20;99.90;;;;;;5077580;28;20615;-75
2021/04/23 05:03:35;;;;;;;35.13;15.33;;;1.30;99.90;;;;;;5071321;28;20214;-74
2021/04/23 05:06:20;;;;;;;30.73;15.10;;;1.40;99.90;;;;;;5087660;28;20210;-76
2021/04/23 05:09:06;;;;;;;33.23;11.97;;;1.50;99.90;;;;;;5081710;28;20231;-76
2021/04/23 05:11:51;;;;;;;36.77;12.03;;;1.60;99.90;;;;;;5057394;28;20211;-76
2021/04/23 05:14:36;;;;;;;31.20;12.77;;;1.80;99.90;;;;;;5062900;28;20249;-76
2021/04/23 05:17:21;;;;;;;38.67;12.57;;;1.80;99.90;;;;;;5069482;28;20759;-76
2021/04/23 05:20:08;;;;;;;43.63;12.97;;;2.00;99.90;;;;;;5063714;28;20725;-77
2021/04/23 05:22:53;;;;;;;42.40;12.73;;;2.20;99.90;;;;;;5061682;28;20206;-77
2021/04/23 05:25:38;;;;;;;40.90;14.23;;;2.30;99.90;;;;;;5056276;28;20214;-76
2021/04/23 05:28:23;;;;;;;47.90;14.37;;;2.50;99.90;;;;;;5058440;28;20228;-76
2021/04/23 05:31:08;;;;;;;42.10;13.87;;;2.70;99.90;;;;;;5069241;28;20254;-76
2021/04/23 05:33:53;;;;;;;42.10;14.13;;;2.90;99.90;;;;;;5067850;28;20306;-76
2021/04/23 05:36:38;;;;;;;53.63;16.10;;;3.00;99.90;;;;;;5066271;28;20731;-76
2021/04/23 05:39:23;;;;;;;46.77;17.50;;;3.20;99.90;;;;;;5068113;28;20356;-76
2021/04/23 05:42:08;;;;;;;47.37;16.53;;;3.30;99.90;;;;;;5072370;28;20336;-76
2021/04/23 05:44:55;;;;;;;42.37;16.23;;;3.50;99.90;;;;;;5069297;28;20232;-77
2021/04/23 05:47:41;;;;;;;44.10;16.17;;;3.60;99.90;;;;;;5072863;28;20563;-76
2021/04/23 05:50:27;;;;;;;37.73;15.40;;;3.80;99.90;;;;;;5068711;28;20267;-76
2021/04/23 05:53:12;;;;;;;38.87;15.90;;;3.90;99.90;;;;;;5066926;28;20204;-77
2021/04/23 05:55:58;;;;;;;41.63;14.97;;;4.10;99.90;;;;;;5060765;28;20278;-77
2021/04/23 05:58:43;;;;;;;41.27;14.73;;;4.30;99.90;;;;;;5072041;28;20295;-76
2021/04/23 06:01:27;;;;;;;41.73;15.47;;;4.40;99.90;;;;;;5070786;28;20742;-76
2021/04/23 06:04:14;;;;;;;44.37;16.07;;;4.60;99.90;;;;;;5066359;28;20214;-76
2021/04/23 06:06:59;;;;;;;36.20;13.07;;;4.70;99.90;;;;;;5068630;28;20314;-76
2021/04/23 06:09:45;;;;;;;29.27;12.07;;;4.90;99.90;;;;;;5063474;28;20221;-78
2021/04/23 06:12:32;;;;;;;27.70;10.83;;;5.00;99.90;;;;;;5065297;28;20205;-76
2021/04/23 06:15:18;;;;;;;29.53;10.73;;;5.20;99.90;;;;;;5065874;28;20189;-77
2021/04/23 06:18:04;;;;;;;22.23;10.57;;;5.40;99.90;;;;;;5072177;28;20199;-77
2021/04/23 06:20:50;;;;;;;22.03;8.20;;;5.50;99.90;;;;;;5070583;28;20206;-76
2021/04/23 06:23:35;;;;;;;18.40;7.90;;;5.70;99.90;;;;;;5072040;28;20630;-76
2021/04/23 06:26:20;;;;;;;20.20;6.80;;;5.90;99.90;;;;;;5059543;28;20708;-78
2021/04/23 06:29:05;;;;;;;16.37;7.30;;;6.00;99.90;;;;;;5061975;28;20772;-76
2021/04/23 06:31:50;;;;;;;14.23;6.23;;;6.20;99.90;;;;;;5070502;28;20696;-76
2021/04/23 06:34:34;;;;;;;16.00;6.83;;;6.30;99.90;;;;;;5068926;28;20202;-77
2021/04/23 06:37:20;;;;;;;16.00;6.57;;;6.50;99.90;;;;;;5071809;28;20241;-76
2021/04/23 06:40:06;;;;;;;22.20;7.13;;;6.60;99.90;;;;;;5071398;28;20686;-76
2021/04/23 06:42:52;;;;;;;28.90;7.33;;;6.80;99.90;;;;;;5071777;28;20260;-76
2021/04/23 06:45:37;;;;;;;19.03;5.43;;;7.00;99.90;;;;;;5068347;28;20269;-76
2021/04/23 06:48:23;;;;;;;14.20;5.60;;;7.20;99.90;;;;;;5067617;28;20205;-76
2021/04/23 06:51:08;;;;;;;10.97;4.10;;;7.30;99.90;;;;;;5066604;28;20202;-77
2021/04/23 06:53:54;;;;;;;19.13;4.90;;;7.50;99.90;;;;;;5063799;28;20202;-76
2021/04/23 06:56:39;;;;;;;13.10;4.10;;;7.70;99.90;;;;;;5058809;28;20758;-76
2021/04/23 06:59:24;;;;;;;13.00;4.43;;;7.90;99.90;;;;;;5056712;28;20299;-76
2021/04/23 07:02:09;;;;;;;12.90;4.23;;;8.10;99.90;;;;;;5071309;28;20252;-77
2021/04/23 07:04:54;;;;;;;11.83;4.00;;;8.30;99.90;;;;;;5064907;28;20210;-76
2021/04/23 07:07:40;;;;;;;15.80;3.70;;;8.50;99.90;;;;;;5054565;28;20242;-79
2021/04/23 07:10:28;;;;;;;11.87;3.47;;;8.60;99.90;;;;;;5060667;28;20225;-77
2021/04/23 07:13:13;;;;;;;10.47;3.80;;;8.80;99.90;;;;;;5053459;28;20223;-76
2021/04/23 07:15:58;;;;;;;12.10;3.87;;;9.00;99.90;;;;;;5050616;28;20657;-76
2021/04/23 07:18:43;;;;;;;14.87;3.47;;;9.30;99.90;;;;;;5059301;28;20230;-76
2021/04/23 07:21:28;;;;;;;9.10;2.80;;;9.50;99.90;;;;;;5069073;28;20298;-76
2021/04/23 07:24:13;;;;;;;14.60;3.40;;;9.70;99.90;;;;;;5051122;28;20222;-77
2021/04/23 07:26:59;;;;;;;10.50;2.83;;;9.90;99.90;;;;;;5064981;28;20222;-76
2021/04/23 07:29:44;;;;;;;20.30;3.50;;;10.10;99.90;;;;;;5065525;28;20230;-76
2021/04/23 07:32:28;;;;;;;8.17;3.13;;;10.30;99.90;;;;;;5058589;28;20217;-76
2021/04/23 07:35:14;;;;;;;9.87;2.40;;;10.50;99.90;;;;;;5071100;28;20607;-76
2021/04/23 07:38:00;;;;;;;7.07;2.20;;;10.70;99.90;;;;;;5072256;28;20206;-76
2021/04/23 07:40:46;;;;;;;10.63;2.70;;;10.90;99.90;;;;;;5059855;28;20218;-77
2021/04/23 07:43:31;;;;;;;13.10;3.47;;;11.10;99.90;;;;;;5067919;28;20198;-76
2021/04/23 07:46:16;;;;;;;9.30;2.87;;;11.30;99.90;;;;;;5070232;28;20734;-75
2021/04/23 07:49:01;;;;;;;4.83;2.17;;;11.40;99.90;;;;;;5070033;28;20234;-75
2021/04/23 07:51:47;;;;;;;11.37;3.37;;;11.60;99.90;;;;;;5063827;28;20654;-75
2021/04/23 07:54:32;;;;;;;8.83;2.93;;;11.70;99.90;;;;;;5067040;28;20273;-77
2021/04/23 07:57:17;;;;;;;10.17;2.87;;;11.90;99.90;;;;;;5051718;28;20298;-76
2021/04/23 08:00:05;;;;;;;9.63;3.13;;;12.00;99.90;;;;;;5058693;28;20238;-75
2021/04/23 08:02:51;;;;;;;12.47;3.23;;;12.10;99.90;;;;;;5068060;28;20212;-76
2021/04/23 08:05:36;;;;;;;14.43;3.33;;;12.30;99.90;;;;;;5051048;28;20630;-75
2021/04/23 08:08:21;;;;;;;8.17;3.27;;;12.30;99.90;;;;;;5056808;28;20204;-76
2021/04/23 08:11:06;;;;;;;8.33;2.70;;;12.40;99.90;;;;;;5057696;28;20274;-76
2021/04/23 08:13:51;;;;;;;10.07;2.87;;;12.50;99.90;;;;;;5070019;28;20261;-76
2021/04/23 08:16:36;;;;;;;10.80;2.60;;;12.60;99.90;;;;;;5054190;28;20204;-76
2021/04/23 08:19:22;;;;;;;10.97;2.90;;;12.60;99.90;;;;;;5070927;28;20265;-75
2021/04/23 08:22:06;;;;;;;14.23;3.40;;;12.70;99.90;;;;;;5055532;28;20200;-77
2021/04/23 08:24:51;;;;;;;7.23;3.30;;;12.80;99.90;;;;;;5066136;28;20231;-76
2021/04/23 08:27:37;;;;;;;7.03;2.73;;;12.90;99.90;;;;;;5071138;28;20204;-74
2021/04/23 08:30:24;;;;;;;10.87;2.90;;;13.00;99.90;;;;;;5070556;28;20633;-75
2021/04/23 08:33:10;;;;;;;7.87;2.60;;;13.10;99.90;;;;;;5068938;28;20211;-76
2021/04/23 08:35:55;;;;;;;8.77;2.37;;;13.20;99.90;;;;;;5070846;28;20208;-76
2021/04/23 08:38:40;;;;;;;9.87;2.57;;;13.30;99.90;;;;;;5070400;28;20268;-75
2021/04/23 08:41:25;;;;;;;5.53;2.30;;;13.40;99.90;;;;;;5063329;28;20209;-77
2021/04/23 08:44:10;;;;;;;6.57;2.57;;;13.50;99.90;;;;;;5059194;28;20251;-75
2021/04/23 08:46:54;;;;;;;12.63;2.73;;;13.60;99.90;;;;;;5068681;28;20599;-76
2021/04/23 08:49:42;;;;;;;8.33;2.87;;;13.70;99.90;;;;;;5064491;28;20765;-76
2021/04/23 08:52:28;;;;;;;6.60;2.50;;;13.90;99.90;;;;;;5065412;28;20209;-76
2021/04/23 08:55:16;;;;;;;7.83;2.70;;;14.00;99.90;;;;;;5066832;28;20237;-76
2021/04/23 08:58:01;;;;;;;7.97;3.23;;;14.10;99.90;;;;;;5055591;28;20256;-75
2021/04/23 09:00:46;;;;;;;11.63;3.27;;;14.20;99.90;;;;;;5070838;28;20692;-76
2021/04/23 09:03:30;;;;;;;11.67;2.97;;;14.40;99.90;;;;;;5055850;28;20696;-76
2021/04/23 09:06:18;;;;;;;6.13;2.23;;;14.50;99.90;;;;;;5063980;28;20221;-76
2021/04/23 09:09:08;;;;;;;9.97;2.53;;;14.60;99.90;;;;;;5062433;28;20340;-76
2021/04/23 09:11:52;;;;;;;8.10;2.60;;;14.70;99.90;;;;;;5053438;28;20679;-76
2021/04/23 09:14:37;;;;;;;7.70;2.90;;;14.80;99.70;;;;;;5067309;28;20213;-76
2021/04/23 09:17:23;;;;;;;7.20;2.57;;;14.90;99.20;;;;;;5074140;28;20229;-75
2021/04/23 09:20:09;;;;;;;8.73;2.70;;;15.00;97.90;;;;;;5069551;28;20269;-76
2021/04/23 09:23:06;;;;;;;9.20;2.77;;;15.10;99.30;;;;;;5068022;28;20210;-77
2021/04/23 09:25:53;;;;;;;10.53;2.77;;;15.20;98.40;;;;;;5063897;28;20285;-76
2021/04/23 09:28:40;;;;;;;10.13;2.63;;;15.40;96.70;;;;;;5058559;28;20335;-77
2021/04/23 09:31:30;;;;;;;11.20;2.80;;;15.60;95.90;;;;;;5067616;28;20287;-76
2021/04/23 09:34:17;;;;;;;8.47;2.97;;;15.90;95.70;;;;;;5063201;28;20685;-76
2021/04/23 09:37:02;;;;;;;6.57;2.37;;;16.20;95.90;;;;;;5073143;28;20704;-75
2021/04/23 09:39:47;;;;;;;11.33;3.43;;;16.40;95.70;;;;;;5061229;28;20222;-77
2021/04/23 09:42:43;;;;;;;11.03;2.90;;;16.70;95.60;;;;;;5073291;28;20731;-76
2021/04/23 09:45:30;;;;;;;5.23;2.50;;;16.90;96.60;;;;;;5073064;28;20227;-77
2021/04/23 09:48:19;;;;;;;7.87;2.83;;;17.30;95.00;;;;;;5070520;28;20319;-77
2021/04/23 09:51:18;;;;;;;8.60;2.73;;;18.00;91.00;;;;;;5059522;28;20211;-76
2021/04/23 09:54:12;;;;;;;9.33;2.47;;;18.80;91.70;;;;;;5073848;28;20256;-77
2021/04/23 09:56:58;;;;;;;10.20;2.77;;;19.80;91.20;;;;;;5064927;28;20595;-78
2021/04/23 09:59:49;;;;;;;4.50;2.23;;;20.60;83.40;;;;;;5060228;28;20256;-77
2021/04/23 10:02:34;;;;;;;10.07;2.93;;;21.50;82.00;;;;;;5060597;28;20209;-77
2021/04/23 10:05:31;;;;;;;6.03;2.60;;;22.20;77.90;;;;;;5069204;28;20813;-77
2021/04/23 10:08:24;;;;;;;9.70;2.77;;;22.90;70.30;;;;;;5070207;28;20239;-77
2021/04/23 10:11:09;;;;;;;7.83;2.27;;;23.40;67.70;;;;;;5072346;28;20641;-77
2021/04/23 10:14:09;;;;;;;9.63;2.93;;;24.00;63.30;;;;;;5071772;28;20327;-77
2021/04/23 10:16:59;;;;;;;4.57;2.33;;;24.70;61.90;;;;;;5057134;28;20205;-76
2021/04/23 10:19:44;;;;;;;8.70;2.97;;;25.30;56.80;;;;;;5055571;28;20728;-76
2021/04/23 10:22:29;;;;;;;8.45;2.72;;;26.00;55.40;;;;;;5051294;28;20226;-77
2021/04/23 10:25:15;;;;;;;8.70;3.05;;;26.70;56.30;;;;;;5053633;28;20209;-77
2021/04/23 10:28:01;;;;;;;6.25;3.10;;;27.30;55.90;;;;;;5057618;28;20209;-77
2021/04/23 10:30:49;;;;;;;9.00;3.30;;;27.90;54.50;;;;;;5059149;28;20336;-77
2021/04/23 10:33:34;;;;;;;7.82;2.80;;;28.50;53.50;;;;;;5065938;28;20751;-77
2021/04/23 10:36:19;;;;;;;11.30;3.67;;;29.10;50.90;;;;;;5058484;28;20268;-77
2021/04/23 10:39:06;;;;;;;5.03;2.40;;;29.50;50.30;;;;;;5056473;28;20225;-77
2021/04/23 10:41:51;;;;;;;10.10;2.83;;;30.10;48.20;;;;;;5069780;28;20226;-77
2021/04/23 10:44:57;;;;;;;8.95;2.65;;;30.70;47.70;;;;;;5063029;28;20235;-77
2021/04/23 10:47:43;;;;;;;9.50;3.08;;;31.20;49.60;;;;;;5065648;28;20205;-77
2021/04/23 10:50:37;;;;;;;5.80;2.50;;;31.70;47.50;;;;;;5069548;28;20238;-77
2021/04/23 10:53:41;;;;;;;5.80;3.33;;;32.10;45.90;;;;;;5054042;28;20568;-77
2021/04/23 10:56:29;;;;;;;5.88;2.72;;;32.60;42.40;;;;;;5054485;28;20716;-77
2021/04/23 10:59:29;;;;;;;6.93;2.70;;;33.00;44.70;;;;;;5066943;28;20719;-77
2021/04/23 11:02:15;;;;;;;6.72;2.90;;;33.30;41.90;;;;;;5064608;28;20240;-77
2021/04/23 11:05:01;;;;;;;6.13;2.50;;;33.60;40.50;;;;;;5058627;28;20202;-77
2021/04/23 11:08:07;;;;;;;7.90;3.00;;;33.70;40.90;;;;;;5071989;28;20471;-77
2021/04/23 11:11:15;;;;;;;9.25;3.40;;;33.90;42.00;;;;;;5065756;28;20690;-77
2021/04/23 11:14:23;;;;;;;7.82;2.90;;;34.10;41.50;;;;;;5062655;28;20257;-77
2021/04/23 11:17:32;;;;;;;5.78;2.80;;;34.30;41.60;;;;;;5060939;28;20236;-77
2021/04/23 11:20:30;;;;;;;7.35;2.70;;;34.50;42.40;;;;;;5060394;28;20218;-77
2021/04/23 11:23:15;;;;;;;7.63;3.20;;;34.80;43.30;;;;;;5071434;28;20264;-77
2021/04/23 11:26:02;;;;;;;8.88;3.45;;;35.00;39.70;;;;;;5053784;28;20218;-77
2021/04/23 11:29:11;;;;;;;10.20;3.50;;;35.30;37.70;;;;;;5070958;28;20249;-77
2021/04/23 11:32:14;;;;;;;5.05;2.90;;;35.50;39.80;;;;;;5069978;28;20218;-77
2021/04/23 11:35:00;;;;;;;6.03;3.08;;;35.80;39.20;;;;;;5069254;28;20201;-78
2021/04/23 11:37:52;;;;;;;7.05;3.47;;;35.90;37.00;;;;;;5071815;28;20217;-77
2021/04/23 11:40:37;;;;;;;7.60;2.92;;;36.10;37.40;;;;;;5070740;28;20310;-77
2021/04/23 11:43:37;;;;;;;7.75;2.80;;;36.20;38.10;;;;;;5059895;28;20735;-77
2021/04/23 11:46:51;;;;;;;8.13;3.17;;;36.40;37.30;;;;;;5071387;28;20230;-77
2021/04/23 11:49:37;;;;;;;8.30;3.72;;;36.50;37.00;;;;;;5065206;28;20225;-77
2021/04/23 11:52:28;;;;;;;7.20;3.00;;;36.40;35.10;;;;;;5062046;28;20210;-76
2021/04/23 11:55:17;;;;;;;9.38;3.15;;;36.10;36.00;;;;;;5062778;28;20222;-77
2021/04/23 11:58:03;;;;;;;7.97;3.42;;;35.50;36.80;;;;;;5055490;28;20206;-77
2021/04/23 12:00:52;;;;;;;7.75;3.22;;;34.80;36.80;;;;;;5057705;28;20288;-76
2021/04/23 12:03:37;;;;;;;6.85;3.60;;;33.90;37.00;;;;;;5051146;28;20325;-76
2021/04/23 12:06:26;;;;;;;6.38;2.75;;;33.20;36.80;;;;;;5049852;28;20763;-77
2021/04/23 12:09:17;;;;;;;6.30;3.00;;;32.60;37.90;;;;;;5063820;28;20273;-76
2021/04/23 12:12:06;;;;;;;8.13;3.15;;;32.10;39.70;;;;;;5052996;28;20746;-76
2021/04/23 12:14:51;;;;;;;10.65;3.15;;;31.60;39.10;;;;;;5067855;28;20282;-76
2021/04/23 12:17:39;;;;;;;8.32;3.35;;;31.10;41.40;;;;;;5059133;28;20218;-77
2021/04/23 12:20:27;;;;;;;6.15;2.80;;;30.70;41.60;;;;;;5057931;28;20260;-77
2021/04/23 12:23:14;;;;;;;7.85;3.13;;;30.40;40.90;;;;;;5056440;28;20207;-77
2021/04/23 12:26:01;;;;;;;8.20;2.92;;;30.30;41.20;;;;;;5070479;28;20233;-77
2021/04/23 12:28:48;;;;;;;9.18;3.15;;;30.40;41.10;;;;;;5061025;28;20230;-76
2021/04/23 12:31:35;;;;;;;8.23;3.03;;;30.30;40.40;;;;;;5059585;28;20631;-76
2021/04/23 12:34:20;;;;;;;9.30;2.70;;;30.20;42.50;;;;;;5066001;28;20461;-76
2021/04/23 12:37:05;;;;;;;7.82;3.03;;;29.90;41.50;;;;;;5088711;28;20224;-76
2021/04/23 12:39:50;;;;;;;9.82;3.58;;;29.60;42.10;;;;;;5087079;28;20249;-76
2021/04/23 12:42:35;;;;;;;6.72;2.83;;;29.30;41.20;;;;;;5062631;28;20201;-76
2021/04/23 12:45:21;;;;;;;6.45;2.80;;;29.20;42.10;;;;;;5068817;28;20732;-76
2021/04/23 12:48:06;;;;;;;6.30;2.95;;;28.80;41.50;;;;;;5070643;28;20211;-76
2021/04/23 12:50:53;;;;;;;8.15;3.25;;;28.30;42.30;;;;;;5069215;28;20213;-79
2021/04/23 12:53:38;;;;;;;8.45;3.35;;;27.90;42.90;;;;;;5075758;28;20222;-77
2021/04/23 12:56:25;;;;;;;9.23;3.63;;;27.50;44.30;;;;;;5063189;28;20214;-77
2021/04/23 12:59:33;;;;;;;7.95;3.33;;;27.20;43.50;;;;;;5074811;28;20271;-77
2021/04/23 13:02:29;;;;;;;7.63;3.05;;;26.90;44.80;;;;;;5071646;28;20211;-77
2021/04/23 13:05:16;;;;;;;5.45;2.67;;;26.60;45.10;;;;;;5063470;28;20604;-77
2021/04/23 13:08:03;;;;;;;5.25;2.80;;;26.40;47.20;;;;;;5072355;28;20295;-77
2021/04/23 13:10:50;;;;;;;11.23;3.80;;;26.60;46.40;;;;;;5073099;28;20286;-77
2021/04/23 13:13:40;;;;;;;9.13;3.90;;;27.00;47.50;;;;;;5074171;28;20715;-78
2021/04/23 13:16:25;;;;;;;8.65;3.90;;;27.60;45.10;;;;;;5067968;28;20392;-78
2021/04/23 13:19:10;;;;;;;13.45;4.22;;;28.30;44.10;;;;;;5073293;28;20302;-78
2021/04/23 13:21:55;;;;;;;8.32;3.30;;;28.90;43.50;;;;;;5067028;28;20278;-77
2021/04/23 13:24:40;;;;;;;9.23;3.75;;;29.30;42.80;;;;;;5067701;28;20224;-77
2021/04/23 13:27:27;;;;;;;9.88;2.92;;;29.40;42.40;;;;;;5061224;28;20268;-77
2021/04/23 13:30:28;;;;;;;7.20;3.50;;;29.50;41.90;;;;;;5071064;28;20260;-77
2021/04/23 13:33:20;;;;;;;7.43;3.85;;;29.40;43.10;;;;;;5065237;28;20293;-77
2021/04/23 13:36:12;;;;;;;11.95;3.55;;;29.20;41.70;;;;;;5066024;28;20200;-77
2021/04/23 13:38:58;;;;;;;9.98;3.17;;;28.90;42.50;;;;;;5074418;28;20272;-77
2021/04/23 13:41:44;;;;;;;8.50;4.60;;;28.50;42.70;;;;;;5069280;28;20752;-77
2021/04/23 13:44:34;;;;;;;9.10;3.75;;;28.10;42.60;;;;;;5064774;28;20240;-77
2021/04/23 13:47:19;;;;;;;17.38;4.55;;;27.70;43.00;;;;;;5072689;28;20271;-77
2021/04/23 13:50:10;;;;;;;9.18;3.92;;;27.30;43.70;;;;;;5073334;28;20228;-77
2021/04/23 13:52:56;;;;;;;9.73;3.55;;;26.90;44.00;;;;;;5067977;28;20590;-77
2021/04/23 13:55:59;;;;;;;7.90;3.03;;;26.50;44.60;;;;;;5061983;28;20222;-77
2021/04/23 13:58:55;;;;;;;9.65;3.47;;;26.10;46.90;;;;;;5066435;28;20259;-77
2021/04/23 14:01:42;;;;;;;10.25;4.20;;;25.90;45.60;;;;;;5073488;28;20210;-77
2021/04/23 14:04:29;;;;;;;6.93;3.85;;;25.80;45.60;;;;;;5068528;28;20209;-77
2021/04/23 14:07:15;;;;;;;9.80;4.22;;;26.00;45.40;;;;;;5073221;28;20286;-77
2021/04/23 14:10:01;;;;;;;9.30;3.92;;;26.30;46.00;;;;;;5073117;28;20594;-77
2021/04/23 14:12:46;;;;;;;9.65;3.67;;;26.60;44.40;;;;;;5063607;28;20206;-77
2021/04/23 14:15:30;;;;;;;6.20;3.42;;;27.00;45.00;;;;;;5068199;28;20235;-77
2021/04/23 14:18:15;;;;;;;9.13;3.83;;;27.40;44.50;;;;;;5072435;28;20282;-77
2021/04/23 14:21:00;;;;;;;8.25;3.22;;;27.70;43.30;;;;;;5073047;28;20295;-77
2021/04/23 14:23:45;;;;;;;9.38;3.58;;;27.90;43.30;;;;;;5055826;28;20272;-77
2021/04/23 14:26:30;;;;;;;8.77;3.75;;;28.10;44.60;;;;;;5067557;28;20674;-77
2021/04/23 14:29:18;;;;;;;8.70;3.38;;;28.30;42.30;;;;;;5073071;28;20296;-78